Time;durP1;ratioP1;P1;durP2;ratioP2;P2;SDS_P1;SDS_P2;PMS_P1;PMS_P2;Temp;Humidity;BMP_temperature;BMP_pressure;BME280_temperature;BME280_humidity;BME280_pressure;Samples;Min_cycle;Max_cycle;Signal;HPM_P1;HPM_P2
2022/04/06 06:17:00;;;;;;;30.90;12.75;;;;;;;;;;5533368;23;20078;-65
2022/04/06 06:19:27;;;;;;;26.90;9.32;;;;;;;;;;5005180;28;20061;-64
2022/04/06 06:21:53;;;;;;;25.52;9.95;;;;;;;;;;5023089;28;20053;-64
2022/04/06 06:24:20;;;;;;;36.00;11.57;;;;;;;;;;5024765;28;20052;-65
2022/04/06 06:26:47;;;;;;;22.00;9.85;;;;;;;;;;5024809;28;20072;-65
2022/04/06 06:29:13;;;;;;;27.70;10.32;;;;;;;;;;5007616;28;20068;-65
2022/04/06 06:31:39;;;;;;;23.95;9.95;;;;;;;;;;5024153;28;20046;-64
2022/04/06 06:34:06;;;;;;;23.60;9.43;;;;;;;;;;5007422;28;20053;-65
2022/04/06 06:36:32;;;;;;;16.85;6.95;;;;;;;;;;5023596;28;20052;-65
2022/04/06 06:38:58;;;;;;;21.15;9.77;;;;;;;;;;5025290;28;20045;-65
2022/04/06 06:41:25;;;;;;;22.83;8.45;;;;;;;;;;5024933;28;20105;-65
2022/04/06 06:43:53;;;;;;;24.98;8.32;;;;;;;;;;5007520;28;20057;-65
2022/04/06 06:46:19;;;;;;;22.33;9.07;;;;;;;;;;5024699;28;20050;-65
2022/04/06 06:48:46;;;;;;;15.50;8.40;;;;;;;;;;5024870;28;20133;-65
2022/04/06 06:51:13;;;;;;;18.13;7.63;;;;;;;;;;5025008;28;20584;-65
2022/04/06 06:53:39;;;;;;;17.83;6.00;;;;;;;;;;5007741;28;20060;-63
2022/04/06 06:56:05;;;;;;;24.13;9.48;;;;;;;;;;5025214;28;20097;-64
2022/04/06 06:58:31;;;;;;;17.75;7.85;;;;;;;;;;5024862;28;20049;-64
2022/04/06 07:00:58;;;;;;;30.98;9.77;;;;;;;;;;5007513;28;20093;-65
2022/04/06 07:03:24;;;;;;;22.63;9.27;;;;;;;;;;5025085;28;20117;-66
2022/04/06 07:05:50;;;;;;;28.92;9.55;;;;;;;;;;5025019;28;20103;-65
2022/04/06 07:08:16;;;;;;;21.70;8.80;;;;;;;;;;5024784;28;20057;-65
2022/04/06 07:10:46;;;;;;;17.08;6.00;;;;;;;;;;5025070;28;20049;-65
2022/04/06 07:13:12;;;;;;;14.32;6.22;;;;;;;;;;5025146;28;20074;-64
2022/04/06 07:15:39;;;;;;;19.20;5.93;;;;;;;;;;5025069;28;20050;-64
2022/04/06 07:18:07;;;;;;;17.60;4.82;;;;;;;;;;4999244;28;20054;-64
2022/04/06 07:20:35;;;;;;;10.70;4.15;;;;;;;;;;5005149;28;20587;-65
2022/04/06 07:23:02;;;;;;;17.50;5.78;;;;;;;;;;5002667;28;20050;-65
2022/04/06 07:25:28;;;;;;;11.35;4.75;;;;;;;;;;5004830;28;20053;-65
2022/04/06 07:27:54;;;;;;;14.18;4.93;;;;;;;;;;5003958;28;20057;-66
2022/04/06 07:30:20;;;;;;;17.50;6.10;;;;;;;;;;5003804;28;20336;-65
2022/04/06 07:32:46;;;;;;;15.73;4.95;;;;;;;;;;5004626;28;20073;-66
2022/04/06 07:35:12;;;;;;;17.25;5.20;;;;;;;;;;5004656;28;20667;-65
2022/04/06 07:37:42;;;;;;;14.80;4.82;;;;;;;;;;5004343;28;20054;-64
2022/04/06 07:40:09;;;;;;;12.93;4.97;;;;;;;;;;4987284;28;20054;-64
2022/04/06 07:42:36;;;;;;;16.87;5.33;;;;;;;;;;5006239;28;20042;-65
2022/04/06 07:45:03;;;;;;;16.15;5.45;;;;;;;;;;4991258;28;20293;-65
2022/04/06 07:47:30;;;;;;;17.85;5.22;;;;;;;;;;5008258;28;20077;-65
2022/04/06 07:49:57;;;;;;;18.60;6.68;;;;;;;;;;5008246;28;20119;-65
2022/04/06 07:52:24;;;;;;;16.05;6.25;;;;;;;;;;5007711;28;20042;-65
2022/04/06 07:54:50;;;;;;;16.50;6.07;;;;;;;;;;5007757;28;20098;-65
2022/04/06 07:57:16;;;;;;;20.50;6.15;;;;;;;;;;5008434;28;20501;-64
2022/04/06 07:59:42;;;;;;;18.00;6.57;;;;;;;;;;5008611;28;20130;-65
2022/04/06 08:02:09;;;;;;;17.17;6.20;;;;;;;;;;5008008;28;20046;-64
2022/04/06 08:04:35;;;;;;;16.98;5.50;;;;;;;;;;5007972;28;20108;-65
2022/04/06 08:07:01;;;;;;;20.20;6.82;;;;;;;;;;5007517;28;20070;-65
2022/04/06 08:09:27;;;;;;;17.08;6.03;;;;;;;;;;5009068;28;20042;-65
2022/04/06 08:11:53;;;;;;;13.88;5.88;;;;;;;;;;5007647;28;20134;-65
2022/04/06 08:14:20;;;;;;;15.85;6.07;;;;;;;;;;4991692;28;20054;-65
2022/04/06 08:16:47;;;;;;;19.83;6.93;;;;;;;;;;4994984;28;20084;-65
2022/04/06 08:19:13;;;;;;;19.35;6.32;;;;;;;;;;4989795;28;20054;-65
2022/04/06 08:21:40;;;;;;;22.02;6.10;;;;;;;;;;5006510;28;20050;-65
2022/04/06 08:24:06;;;;;;;13.63;4.63;;;;;;;;;;4989860;28;20050;-64
2022/04/06 08:26:34;;;;;;;19.85;6.65;;;;;;;;;;5007355;28;20106;-66
2022/04/06 08:29:00;;;;;;;15.68;3.95;;;;;;;;;;5007670;28;20069;-65
2022/04/06 08:31:26;;;;;;;13.13;5.05;;;;;;;;;;5007158;28;20145;-65
2022/04/06 08:33:52;;;;;;;14.32;5.00;;;;;;;;;;4989982;28;20118;-64
2022/04/06 08:36:18;;;;;;;13.50;4.95;;;;;;;;;;5007016;28;20046;-64
2022/04/06 08:38:44;;;;;;;16.15;6.15;;;;;;;;;;5006778;28;20038;-65
2022/04/06 08:41:10;;;;;;;20.98;7.18;;;;;;;;;;5007145;28;20137;-64
2022/04/06 08:43:37;;;;;;;20.80;6.90;;;;;;;;;;5007525;28;20363;-64
2022/04/06 08:46:03;;;;;;;20.08;5.97;;;;;;;;;;5007149;28;20064;-64
2022/04/06 08:48:29;;;;;;;18.55;6.70;;;;;;;;;;5006765;28;20046;-65
2022/04/06 08:50:57;;;;;;;18.83;5.53;;;;;;;;;;5006632;28;20046;-64
2022/04/06 08:53:23;;;;;;;;;;;;;;;;;;5006549;28;20052;-64
2022/04/06 08:55:49;;;;;;;22.60;6.35;;;;;;;;;;5006779;28;19964;-64
2022/04/06 08:58:15;;;;;;;20.23;6.70;;;;;;;;;;5006802;28;20531;-64
2022/04/06 09:00:41;;;;;;;19.73;5.50;;;;;;;;;;4989246;28;20050;-64
2022/04/06 09:03:08;;;;;;;18.25;5.88;;;;;;;;;;4989657;28;20119;-64
2022/04/06 09:05:34;;;;;;;17.13;4.93;;;;;;;;;;5007171;28;20042;-65
2022/04/06 09:08:03;;;;;;;14.88;5.30;;;;;;;;;;5003108;28;20050;-64
2022/04/06 09:10:31;;;;;;;22.73;5.63;;;;;;;;;;4997877;28;20061;-64
2022/04/06 09:13:11;;;;;;;16.33;5.15;;;;;;;;;;4988862;28;20110;-64
2022/04/06 09:15:37;;;;;;;22.58;5.43;;;;;;;;;;5007024;28;20521;-64
2022/04/06 09:18:04;;;;;;;22.02;4.57;;;;;;;;;;5021234;28;20061;-64
2022/04/06 09:20:31;;;;;;;26.98;5.45;;;;;;;;;;5026356;28;20046;-64
2022/04/06 09:23:00;;;;;;;20.77;4.10;;;;;;;;;;5007806;28;20054;-63
2022/04/06 09:25:26;;;;;;;13.80;4.22;;;;;;;;;;5008617;28;20101;-63
2022/04/06 09:27:52;;;;;;;12.48;4.80;;;;;;;;;;5031390;28;20076;-64
2022/04/06 09:30:19;;;;;;;15.85;3.75;;;;;;;;;;5008512;28;20071;-64
2022/04/06 09:32:46;;;;;;;13.30;4.50;;;;;;;;;;5008079;28;20065;-64
2022/04/06 09:35:28;;;;;;;20.85;4.70;;;;;;;;;;5020650;28;20064;-64
2022/04/06 09:38:13;;;;;;;11.48;3.97;;;;;;;;;;5013125;28;20084;-64
2022/04/06 09:40:40;;;;;;;15.13;5.22;;;;;;;;;;5008922;28;20049;-64
2022/04/06 09:43:07;;;;;;;12.07;4.97;;;;;;;;;;5007538;28;20072;-64
2022/04/06 09:48:18;;;;;;;13.52;4.38;;;;;;;;;;5022392;28;20065;-64
2022/04/06 09:50:55;;;;;;;16.50;5.28;;;;;;;;;;5005186;28;20046;-64
2022/04/06 09:53:24;;;;;;;16.05;4.30;;;;;;;;;;5007276;28;20049;-64
2022/04/06 09:55:52;;;;;;;19.38;4.45;;;;;;;;;;5025682;28;20061;-64
2022/04/06 09:58:19;;;;;;;17.65;4.45;;;;;;;;;;5025847;28;20045;-65
2022/04/06 10:00:45;;;;;;;13.75;3.97;;;;;;;;;;5025878;28;20089;-64
2022/04/06 10:03:15;;;;;;;9.45;4.18;;;;;;;;;;5025174;28;20113;-64
2022/04/06 10:05:44;;;;;;;16.23;4.38;;;;;;;;;;5040030;28;20045;-64
2022/04/06 10:08:11;;;;;;;16.30;4.43;;;;;;;;;;5040592;28;20045;-64
2022/04/06 10:10:41;;;;;;;14.88;4.07;;;;;;;;;;5022595;28;20081;-63
2022/04/06 10:13:08;;;;;;;18.63;5.63;;;;;;;;;;5035612;28;20049;-63
2022/04/06 10:15:35;;;;;;;15.93;4.57;;;;;;;;;;5035496;28;20562;-63
2022/04/06 10:18:02;;;;;;;21.05;4.43;;;;;;;;;;5038753;28;20121;-63
2022/04/06 10:20:32;;;;;;;14.73;4.82;;;;;;;;;;5027354;28;20042;-64
2022/04/06 10:23:18;;;;;;;18.25;5.18;;;;;;;;;;5006890;28;20057;-65
2022/04/06 10:25:45;;;;;;;13.90;4.25;;;;;;;;;;5023000;28;20037;-63
2022/04/06 10:28:12;;;;;;;17.48;4.38;;;;;;;;;;5023667;28;20097;-63
2022/04/06 10:30:38;;;;;;;17.92;3.95;;;;;;;;;;5024521;28;20559;-63
2022/04/06 10:33:18;;;;;;;14.25;4.88;;;;;;;;;;5004778;28;20106;-63
2022/04/06 10:35:44;;;;;;;19.33;5.03;;;;;;;;;;5024716;28;20069;-63
2022/04/06 10:38:10;;;;;;;19.52;3.95;;;;;;;;;;5014046;28;20045;-63
2022/04/06 10:40:46;;;;;;;22.02;5.75;;;;;;;;;;5024007;28;20050;-64
2022/04/06 10:43:31;;;;;;;15.32;4.68;;;;;;;;;;5019581;28;20058;-64
2022/04/06 10:45:59;;;;;;;20.20;5.85;;;;;;;;;;5007796;28;20142;-64
2022/04/06 10:48:25;;;;;;;15.02;5.80;;;;;;;;;;5013949;28;20053;-63
2022/04/06 10:50:51;;;;;;;18.63;6.43;;;;;;;;;;5016580;28;20493;-63
2022/04/06 10:53:17;;;;;;;22.50;5.55;;;;;;;;;;5009230;28;20547;-63
2022/04/06 10:55:55;;;;;;;19.13;5.38;;;;;;;;;;5013318;28;20101;-64
2022/04/06 10:58:23;;;;;;;19.45;6.18;;;;;;;;;;5012668;28;20101;-64
2022/04/06 11:01:09;;;;;;;29.27;7.22;;;;;;;;;;5020235;28;20088;-63
2022/04/06 11:03:38;;;;;;;17.90;6.13;;;;;;;;;;5012876;28;20482;-64
2022/04/06 11:06:04;;;;;;;20.08;5.07;;;;;;;;;;5009377;28;20050;-64
2022/04/06 11:11:43;;;;;;;23.98;6.13;;;;;;;;;;5006697;28;20074;-64
2022/04/06 11:14:09;;;;;;;25.27;7.70;;;;;;;;;;5013400;28;20060;-65
2022/04/06 11:16:42;;;;;;;36.53;9.50;;;;;;;;;;5009798;28;20308;-65
2022/04/06 11:19:08;;;;;;;31.15;7.72;;;;;;;;;;5007252;28;20139;-65
2022/04/06 11:21:34;;;;;;;23.88;6.13;;;;;;;;;;5008228;28;20046;-62
2022/04/06 11:24:01;;;;;;;17.95;5.10;;;;;;;;;;5014945;28;20048;-62
2022/04/06 11:26:27;;;;;;;29.95;7.05;;;;;;;;;;5020129;28;20065;-64
2022/04/06 11:29:00;;;;;;;28.17;6.22;;;;;;;;;;4998515;28;20077;-62
2022/04/06 11:31:26;;;;;;;23.83;7.60;;;;;;;;;;5013914;28;20073;-62
2022/04/06 11:33:52;;;;;;;20.83;6.97;;;;;;;;;;4998078;28;20120;-62
2022/04/06 11:36:19;;;;;;;22.70;7.72;;;;;;;;;;5022952;28;20097;-63
2022/04/06 11:38:49;;;;;;;27.27;6.53;;;;;;;;;;5029263;28;20042;-62
2022/04/06 11:41:16;;;;;;;22.05;5.70;;;;;;;;;;5004016;28;20132;-62
2022/04/06 11:43:42;;;;;;;19.10;5.45;;;;;;;;;;5023686;28;20050;-62
2022/04/06 11:46:09;;;;;;;19.58;5.97;;;;;;;;;;5019806;28;20122;-62
2022/04/06 11:48:42;;;;;;;28.27;6.60;;;;;;;;;;5023302;28;20042;-62
2022/04/06 11:51:08;;;;;;;23.92;6.18;;;;;;;;;;5014199;28;20046;-62
2022/04/06 11:53:36;;;;;;;20.67;5.15;;;;;;;;;;5006461;28;20042;-62
2022/04/06 11:56:03;;;;;;;22.10;5.72;;;;;;;;;;5014305;28;20090;-62
2022/04/06 11:58:47;;;;;;;18.83;4.85;;;;;;;;;;5006591;28;20038;-62
2022/04/06 12:01:15;;;;;;;18.38;3.70;;;;;;;;;;5019301;28;20101;-62
2022/04/06 12:03:42;;;;;;;12.85;3.60;;;;;;;;;;5023052;28;20046;-62
2022/04/06 12:06:10;;;;;;;15.00;4.10;;;;;;;;;;5023086;28;20093;-62
2022/04/06 12:08:36;;;;;;;;;;;;;;;;;;5016979;28;20103;-61
2022/04/06 12:11:02;;;;;;;24.00;5.35;;;;;;;;;;5003656;28;19921;-63
2022/04/06 12:13:29;;;;;;;12.45;4.25;;;;;;;;;;5007440;28;20054;-62
2022/04/06 12:15:55;;;;;;;21.17;4.10;;;;;;;;;;5022004;28;20045;-62
2022/04/06 12:18:22;;;;;;;14.07;3.60;;;;;;;;;;5003691;28;20065;-62
2022/04/06 12:20:49;;;;;;;12.37;3.40;;;;;;;;;;5021653;28;20496;-62
2022/04/06 12:23:16;;;;;;;21.98;3.95;;;;;;;;;;5021340;28;20045;-62
2022/04/06 12:25:43;;;;;;;10.43;3.03;;;;;;;;;;5023095;28;20550;-61
2022/04/06 12:28:19;;;;;;;13.73;3.43;;;;;;;;;;5022181;28;20400;-62
2022/04/06 12:30:58;;;;;;;15.32;3.78;;;;;;;;;;5019729;28;20297;-62
2022/04/06 12:33:24;;;;;;;;;;;;;;;;;;5019455;28;20394;-62
2022/04/06 12:35:50;;;;;;;15.35;3.55;;;;;;;;;;5020030;28;19928;-62
2022/04/06 12:38:17;;;;;;;17.48;3.83;;;;;;;;;;5025955;28;20042;-62
2022/04/06 12:40:43;;;;;;;22.55;4.28;;;;;;;;;;5026505;28;20046;-62
2022/04/06 12:43:27;;;;;;;12.98;3.58;;;;;;;;;;5017250;28;20081;-62
2022/04/06 12:45:53;;;;;;;11.32;3.15;;;;;;;;;;5020971;28;20038;-61
2022/04/06 12:48:19;;;;;;;13.95;3.50;;;;;;;;;;5024590;28;20048;-62
2022/04/06 12:50:45;;;;;;;11.52;3.05;;;;;;;;;;5025120;28;20519;-62
2022/04/06 12:53:12;;;;;;;17.45;3.13;;;;;;;;;;5026735;28;20093;-61
2022/04/06 12:55:39;;;;;;;15.15;3.03;;;;;;;;;;5023127;28;20049;-61
2022/04/06 12:58:18;;;;;;;13.27;3.55;;;;;;;;;;5024009;28;20108;-62
2022/04/06 13:00:45;;;;;;;20.27;4.20;;;;;;;;;;5024982;28;20054;-61
2022/04/06 13:03:12;;;;;;;13.35;3.25;;;;;;;;;;5010784;28;20109;-61
2022/04/06 13:05:38;;;;;;;14.73;3.35;;;;;;;;;;5025760;28;20042;-61
2022/04/06 13:08:05;;;;;;;18.40;3.58;;;;;;;;;;5008119;28;20133;-61
2022/04/06 13:10:34;;;;;;;16.45;3.60;;;;;;;;;;5026180;28;20056;-62
2022/04/06 13:13:01;;;;;;;17.75;2.83;;;;;;;;;;5016170;28;20042;-61
2022/04/06 13:15:27;;;;;;;13.88;3.22;;;;;;;;;;5005663;28;20054;-61
2022/04/06 13:17:54;;;;;;;19.93;3.27;;;;;;;;;;5024790;28;20100;-61
2022/04/06 13:20:21;;;;;;;13.85;3.30;;;;;;;;;;5007677;28;20472;-61
2022/04/06 13:22:48;;;;;;;21.50;3.92;;;;;;;;;;5008050;28;20504;-61
2022/04/06 13:25:15;;;;;;;14.53;3.00;;;;;;;;;;5022571;28;20065;-61
2022/04/06 13:27:42;;;;;;;15.68;2.70;;;;;;;;;;5025855;28;20041;-62
2022/04/06 13:30:10;;;;;;;13.30;3.42;;;;;;;;;;5027700;28;20045;-61
2022/04/06 13:32:37;;;;;;;16.63;3.42;;;;;;;;;;5007943;28;20110;-61
2022/04/06 13:35:03;;;;;;;12.13;2.50;;;;;;;;;;5024209;28;20057;-61
2022/04/06 13:37:29;;;;;;;12.35;2.70;;;;;;;;;;5022293;28;20042;-61
2022/04/06 13:39:55;;;;;;;14.50;3.50;;;;;;;;;;5016795;28;20045;-61
2022/04/06 13:42:22;;;;;;;12.23;2.97;;;;;;;;;;5025254;28;20436;-61
2022/04/06 13:44:48;;;;;;;17.73;2.80;;;;;;;;;;5026659;28;20049;-61
2022/04/06 13:47:14;;;;;;;11.68;3.10;;;;;;;;;;5005103;28;20113;-61
2022/04/06 13:49:40;;;;;;;17.67;3.72;;;;;;;;;;5018285;28;20401;-61
2022/04/06 13:52:07;;;;;;;13.88;2.95;;;;;;;;;;5019330;28;20046;-61
2022/04/06 13:54:34;;;;;;;11.27;2.72;;;;;;;;;;5023379;28;20042;-61
2022/04/06 13:57:01;;;;;;;9.98;2.30;;;;;;;;;;5025785;28;20042;-61
2022/04/06 13:59:27;;;;;;;13.27;2.97;;;;;;;;;;5013678;28;20060;-61
2022/04/06 14:01:53;;;;;;;7.65;2.42;;;;;;;;;;5018328;28;20072;-61
2022/04/06 14:04:20;;;;;;;13.00;2.88;;;;;;;;;;5007499;28;20175;-60
2022/04/06 14:06:46;;;;;;;7.55;2.33;;;;;;;;;;5024829;28;20057;-61
2022/04/06 14:09:12;;;;;;;11.98;2.67;;;;;;;;;;5020274;28;20046;-61
2022/04/06 14:11:39;;;;;;;9.82;2.35;;;;;;;;;;5023346;28;20445;-61
2022/04/06 14:14:07;;;;;;;11.67;2.27;;;;;;;;;;5022761;28;20050;-61
2022/04/06 14:16:33;;;;;;;12.93;2.58;;;;;;;;;;5024752;28;20305;-60
2022/04/06 14:18:59;;;;;;;6.35;2.13;;;;;;;;;;5019201;28;20096;-60
2022/04/06 14:21:33;;;;;;;9.25;1.70;;;;;;;;;;5019100;28;20250;-61
2022/04/06 14:24:00;;;;;;;3.22;1.45;;;;;;;;;;5020327;28;20045;-61
2022/04/06 14:26:26;;;;;;;8.52;2.13;;;;;;;;;;5022672;28;20065;-60
2022/04/06 14:28:52;;;;;;;11.00;1.73;;;;;;;;;;5021345;28;20092;-60
2022/04/06 14:31:18;;;;;;;5.57;1.73;;;;;;;;;;5003675;28;20099;-60
2022/04/06 14:33:44;;;;;;;6.20;1.88;;;;;;;;;;5028868;28;20464;-61
2022/04/06 14:36:10;;;;;;;10.35;2.20;;;;;;;;;;5028395;28;20140;-61
2022/04/06 14:38:37;;;;;;;4.07;1.65;;;;;;;;;;5007312;28;20532;-60
2022/04/06 14:41:07;;;;;;;11.10;1.90;;;;;;;;;;5026779;28;20191;-61
2022/04/06 14:43:34;;;;;;;6.30;1.85;;;;;;;;;;5007248;28;20045;-62
2022/04/06 14:46:01;;;;;;;3.63;1.67;;;;;;;;;;5002710;28;20046;-62
2022/04/06 14:48:27;;;;;;;7.53;2.60;;;;;;;;;;5024084;28;20512;-61
2022/04/06 14:50:53;;;;;;;8.40;3.25;;;;;;;;;;5007892;28;20046;-61
2022/04/06 14:53:19;;;;;;;4.80;1.75;;;;;;;;;;5017081;28;20492;-60
2022/04/06 14:55:46;;;;;;;6.30;2.78;;;;;;;;;;5024719;28;20061;-60
2022/04/06 14:58:13;;;;;;;3.20;2.08;;;;;;;;;;5003470;28;20046;-60
2022/04/06 15:00:39;;;;;;;4.75;1.48;;;;;;;;;;5019104;28;20115;-62
2022/04/06 15:03:06;;;;;;;5.00;1.50;;;;;;;;;;5004444;28;20049;-61
2022/04/06 15:05:33;;;;;;;4.90;1.00;;;;;;;;;;4999373;28;20054;-66
2022/04/06 15:08:00;;;;;;;3.53;1.20;;;;;;;;;;5022884;28;20404;-64
2022/04/06 15:10:27;;;;;;;4.45;1.30;;;;;;;;;;5023787;28;20045;-63
2022/04/06 15:12:53;;;;;;;3.88;1.30;;;;;;;;;;5022400;28;20056;-63
2022/04/06 15:15:19;;;;;;;6.88;1.52;;;;;;;;;;5031241;28;20052;-63
2022/04/06 15:17:46;;;;;;;5.00;1.83;;;;;;;;;;5016989;28;20096;-62
2022/04/06 15:20:14;;;;;;;6.13;3.28;;;;;;;;;;5023467;28;20084;-62
2022/04/06 15:22:40;;;;;;;9.85;3.28;;;;;;;;;;5020011;28;20050;-62
2022/04/06 15:25:07;;;;;;;8.45;3.65;;;;;;;;;;5020871;28;20038;-62
2022/04/06 15:27:33;;;;;;;10.57;3.72;;;;;;;;;;5021180;28;20218;-62
2022/04/06 15:30:00;;;;;;;5.32;4.07;;;;;;;;;;5023060;28;20049;-62
2022/04/06 15:32:26;;;;;;;10.05;4.88;;;;;;;;;;5005926;28;20064;-63
2022/04/06 15:37:45;;;;;;;9.20;4.20;;;;;;;;;;4981603;28;20109;-62
2022/04/06 15:40:12;;;;;;;15.52;4.93;;;;;;;;;;5020631;28;20052;-63
2022/04/06 15:42:38;;;;;;;11.77;5.72;;;;;;;;;;5023805;28;20471;-61
2022/04/06 15:45:05;;;;;;;11.88;6.05;;;;;;;;;;5007521;28;20064;-61
2022/04/06 15:47:32;;;;;;;17.90;6.97;;;;;;;;;;5019344;28;20103;-62
2022/04/06 15:49:59;;;;;;;10.02;6.03;;;;;;;;;;5021894;28;20034;-62
2022/04/06 15:52:25;;;;;;;21.40;7.38;;;;;;;;;;5018972;28;20626;-62
2022/04/06 15:54:52;;;;;;;13.90;6.70;;;;;;;;;;5022754;28;20049;-63
2022/04/06 15:57:18;;;;;;;14.57;6.32;;;;;;;;;;5020685;28;20046;-62
2022/04/06 15:59:47;;;;;;;14.27;5.70;;;;;;;;;;5023282;28;20117;-62
2022/04/06 16:02:14;;;;;;;21.90;7.05;;;;;;;;;;5022389;28;20054;-63
2022/04/06 16:04:40;;;;;;;12.27;6.97;;;;;;;;;;5020181;28;20101;-62
2022/04/06 16:07:07;;;;;;;14.50;7.03;;;;;;;;;;5023518;28;20046;-62
2022/04/06 16:09:34;;;;;;;20.92;8.43;;;;;;;;;;5024568;28;20421;-63
2022/04/06 16:12:03;;;;;;;17.55;8.05;;;;;;;;;;5022676;28;20042;-63
2022/04/06 16:14:29;;;;;;;18.30;9.38;;;;;;;;;;5021336;28;20200;-62
2022/04/06 16:16:58;;;;;;;12.68;7.82;;;;;;;;;;5027773;28;20078;-63
2022/04/06 16:19:27;;;;;;;19.77;7.57;;;;;;;;;;5022448;28;20064;-62
2022/04/06 16:21:54;;;;;;;11.35;7.13;;;;;;;;;;5027461;28;20104;-62
2022/04/06 16:24:20;;;;;;;10.50;6.90;;;;;;;;;;5039217;28;20520;-63
2022/04/06 16:26:47;;;;;;;12.00;7.63;;;;;;;;;;5017388;28;20512;-62
2022/04/06 16:29:13;;;;;;;15.32;7.20;;;;;;;;;;5027258;28;20072;-61
2022/04/06 16:31:40;;;;;;;6.35;5.28;;;;;;;;;;5028867;28;20501;-63
2022/04/06 16:34:06;;;;;;;13.95;6.20;;;;;;;;;;5024572;28;20045;-62
2022/04/06 16:36:36;;;;;;;9.65;5.15;;;;;;;;;;5022548;28;20049;-62
2022/04/06 16:39:03;;;;;;;14.65;6.53;;;;;;;;;;5025041;28;20081;-63
2022/04/06 16:41:30;;;;;;;7.88;5.00;;;;;;;;;;5042293;28;20121;-62
2022/04/06 16:44:00;;;;;;;12.55;5.95;;;;;;;;;;5023888;28;20105;-64
2022/04/06 16:46:29;;;;;;;7.63;4.10;;;;;;;;;;5002241;28;20054;-61
2022/04/06 16:49:02;;;;;;;7.65;5.00;;;;;;;;;;5017906;28;20049;-63
2022/04/06 16:54:14;;;;;;;5.07;4.57;;;;;;;;;;5018880;28;20125;-61
2022/04/06 16:56:41;;;;;;;6.70;5.47;;;;;;;;;;5024138;28;20045;-63
2022/04/06 16:59:07;;;;;;;6.35;4.63;;;;;;;;;;5016944;28;20049;-62
2022/04/06 17:01:34;;;;;;;8.65;5.53;;;;;;;;;;5025202;28;20125;-62
2022/04/06 17:04:01;;;;;;;6.60;4.10;;;;;;;;;;5024421;28;20049;-62
2022/04/06 17:06:28;;;;;;;7.88;4.40;;;;;;;;;;5025264;28;20046;-63
2022/04/06 17:08:54;;;;;;;8.93;4.63;;;;;;;;;;5026182;28;20567;-63
2022/04/06 17:11:20;;;;;;;6.63;4.40;;;;;;;;;;5026661;28;20050;-62
2022/04/06 17:13:47;;;;;;;5.93;4.68;;;;;;;;;;5015483;28;20046;-61
2022/04/06 17:16:13;;;;;;;3.95;3.22;;;;;;;;;;5024947;28;20477;-62
2022/04/06 17:18:40;;;;;;;7.20;4.47;;;;;;;;;;5030249;28;20057;-62
2022/04/06 17:21:07;;;;;;;5.65;4.15;;;;;;;;;;5030989;28;20469;-65
2022/04/06 17:23:33;;;;;;;12.60;4.72;;;;;;;;;;5005746;28;20104;-73
2022/04/06 17:25:59;;;;;;;5.43;4.28;;;;;;;;;;5020485;28;20081;-68
2022/04/06 17:28:25;;;;;;;8.60;4.80;;;;;;;;;;5016487;28;20069;-68
2022/04/06 17:30:56;;;;;;;5.82;4.15;;;;;;;;;;5011594;28;20045;-67
2022/04/06 17:33:23;;;;;;;6.18;4.60;;;;;;;;;;5019137;28;20053;-69
2022/04/06 17:35:50;;;;;;;4.50;4.03;;;;;;;;;;5015411;28;20065;-70
2022/04/06 17:38:16;;;;;;;7.63;4.82;;;;;;;;;;5017042;28;20050;-70
2022/04/06 17:40:42;;;;;;;9.55;4.53;;;;;;;;;;5014295;28;20109;-70
2022/04/06 17:43:08;;;;;;;4.60;3.65;;;;;;;;;;5016577;28;20057;-69
2022/04/06 17:45:35;;;;;;;4.82;3.75;;;;;;;;;;5000674;28;20456;-63
2022/04/06 17:48:08;;;;;;;2.70;2.50;;;;;;;;;;5019382;28;20128;-70
2022/04/06 17:50:37;;;;;;;5.47;3.22;;;;;;;;;;5018335;28;20037;-67
2022/04/06 17:53:04;;;;;;;6.03;3.30;;;;;;;;;;5020876;28;20057;-69
2022/04/06 17:55:31;;;;;;;3.05;2.63;;;;;;;;;;5020645;28;20042;-68
2022/04/06 17:57:57;;;;;;;5.43;3.20;;;;;;;;;;5020637;28;20599;-71
2022/04/06 18:00:25;;;;;;;3.78;3.10;;;;;;;;;;5011514;28;20042;-66
2022/04/06 18:02:51;;;;;;;3.40;2.80;;;;;;;;;;5025488;28;20545;-65
2022/04/06 18:05:18;;;;;;;4.85;3.45;;;;;;;;;;5027536;28;20540;-64
2022/04/06 18:07:44;;;;;;;3.92;3.42;;;;;;;;;;5026170;28;20145;-70
2022/04/06 18:10:10;;;;;;;5.50;3.75;;;;;;;;;;5026547;28;20144;-63
2022/04/06 18:15:22;;;;;;;6.40;4.35;;;;;;;;;;5025143;28;20058;-62
2022/04/06 18:17:48;;;;;;;5.25;4.38;;;;;;;;;;5024702;28;20045;-63
2022/04/06 18:20:14;;;;;;;7.60;5.90;;;;;;;;;;5021929;28;20054;-64
2022/04/06 18:22:41;;;;;;;6.50;5.25;;;;;;;;;;5024264;28;20049;-68
2022/04/06 18:25:09;;;;;;;6.90;5.13;;;;;;;;;;5025169;28;20076;-74
2022/04/06 18:27:35;;;;;;;7.40;6.22;;;;;;;;;;5024183;28;20061;-73
2022/04/06 18:30:01;;;;;;;6.13;5.53;;;;;;;;;;5025235;28;20484;-78
2022/04/06 18:32:28;;;;;;;6.85;6.07;;;;;;;;;;5005459;28;20136;-68
2022/04/06 18:34:54;;;;;;;11.40;6.57;;;;;;;;;;5005664;28;20132;-67
2022/04/06 18:37:23;;;;;;;9.60;6.18;;;;;;;;;;5018677;28;20041;-71
2022/04/06 18:39:49;;;;;;;7.53;6.35;;;;;;;;;;5024399;28;20484;-71
2022/04/06 18:42:15;;;;;;;9.68;5.75;;;;;;;;;;5025505;28;20057;-70
2022/04/06 18:44:41;;;;;;;10.52;6.82;;;;;;;;;;5016525;28;20106;-70
2022/04/06 18:47:07;;;;;;;12.35;8.70;;;;;;;;;;5016087;28;20040;-70
2022/04/06 18:49:36;;;;;;;12.80;6.55;;;;;;;;;;5024700;28;20049;-69
2022/04/06 18:52:03;;;;;;;12.02;8.38;;;;;;;;;;5007232;28;20214;-70
2022/04/06 18:54:29;;;;;;;9.80;6.70;;;;;;;;;;5027191;28;20045;-70
2022/04/06 18:56:56;;;;;;;9.85;8.00;;;;;;;;;;5026484;28;20069;-69
2022/04/06 18:59:27;;;;;;;14.20;9.30;;;;;;;;;;5025024;28;20113;-70
2022/04/06 19:01:54;;;;;;;12.63;9.95;;;;;;;;;;5026310;28;20058;-70
2022/04/06 19:04:20;;;;;;;9.65;8.45;;;;;;;;;;5032157;28;20073;-70
2022/04/06 19:06:46;;;;;;;11.18;8.15;;;;;;;;;;5024069;28;20040;-70
2022/04/06 19:09:13;;;;;;;9.60;8.70;;;;;;;;;;5031916;28;20105;-70
2022/04/06 19:11:39;;;;;;;9.83;8.87;;;;;;;;;;5031216;28;20037;-70
2022/04/06 19:14:10;;;;;;;11.10;9.07;;;;;;;;;;5012103;28;20112;-70
2022/04/06 19:16:36;;;;;;;7.60;5.88;;;;;;;;;;5031068;28;20045;-70
2022/04/06 19:19:03;;;;;;;9.48;7.95;;;;;;;;;;5004110;28;20090;-71
2022/04/06 19:21:29;;;;;;;8.93;7.40;;;;;;;;;;5024285;28;20109;-70
2022/04/06 19:23:55;;;;;;;9.43;8.38;;;;;;;;;;5023787;28;20088;-70
2022/04/06 19:26:21;;;;;;;7.82;6.97;;;;;;;;;;5015869;28;20050;-70
2022/04/06 19:28:47;;;;;;;9.57;7.55;;;;;;;;;;5007127;28;20080;-70
2022/04/06 19:31:18;;;;;;;11.18;8.88;;;;;;;;;;5024012;28;20042;-70
2022/04/06 19:33:44;;;;;;;14.57;9.40;;;;;;;;;;5023877;28;20455;-69
2022/04/06 19:36:12;;;;;;;13.73;9.48;;;;;;;;;;5005368;28;20057;-70
2022/04/06 19:38:38;;;;;;;12.40;8.30;;;;;;;;;;5025479;28;20126;-69
2022/04/06 19:41:06;;;;;;;9.77;7.80;;;;;;;;;;5027955;28;20438;-69
2022/04/06 19:43:32;;;;;;;13.15;9.18;;;;;;;;;;5028044;28;20046;-69
2022/04/06 19:45:58;;;;;;;13.63;8.02;;;;;;;;;;5028761;28;20053;-68
2022/04/06 19:48:24;;;;;;;10.02;8.07;;;;;;;;;;5027360;28;20049;-68
2022/04/06 19:50:51;;;;;;;15.43;8.73;;;;;;;;;;5027599;28;20037;-68
2022/04/06 19:53:17;;;;;;;14.68;7.47;;;;;;;;;;5014997;28;20065;-68
2022/04/06 19:55:43;;;;;;;10.93;7.35;;;;;;;;;;5021077;28;20049;-68
2022/04/06 19:58:10;;;;;;;18.30;8.00;;;;;;;;;;5020379;28;20076;-69
2022/04/06 20:00:36;;;;;;;11.00;6.65;;;;;;;;;;5026136;28;20098;-69
2022/04/06 20:03:02;;;;;;;9.90;6.53;;;;;;;;;;5025605;28;20050;-69
2022/04/06 20:05:28;;;;;;;6.85;4.63;;;;;;;;;;5027669;28;20553;-68
2022/04/06 20:07:55;;;;;;;10.65;5.38;;;;;;;;;;5009915;28;20120;-68
2022/04/06 20:10:21;;;;;;;8.30;5.45;;;;;;;;;;5014896;28;20050;-68
2022/04/06 20:12:49;;;;;;;10.25;5.93;;;;;;;;;;5033501;28;20046;-68
2022/04/06 20:15:15;;;;;;;9.00;6.53;;;;;;;;;;5016869;28;20046;-69
2022/04/06 20:17:41;;;;;;;11.00;6.05;;;;;;;;;;5030006;28;20045;-68
2022/04/06 20:20:07;;;;;;;9.40;4.80;;;;;;;;;;5027077;28;20133;-68
2022/04/06 20:22:34;;;;;;;14.40;6.80;;;;;;;;;;5019471;28;20064;-69
2022/04/06 20:25:00;;;;;;;14.82;4.93;;;;;;;;;;5025158;28;20042;-69
2022/04/06 20:27:26;;;;;;;9.95;5.22;;;;;;;;;;5026876;28;20042;-70
2022/04/06 20:29:53;;;;;;;15.90;5.03;;;;;;;;;;5026834;28;20038;-69
2022/04/06 20:32:19;;;;;;;9.10;4.63;;;;;;;;;;5006167;28;20054;-69
2022/04/06 20:34:45;;;;;;;9.98;5.25;;;;;;;;;;5020878;28;20069;-69
2022/04/06 20:37:12;;;;;;;9.20;4.28;;;;;;;;;;5026958;28;20073;-69
2022/04/06 20:39:38;;;;;;;14.98;4.65;;;;;;;;;;5025387;28;20050;-69
2022/04/06 20:42:14;;;;;;;12.18;4.93;;;;;;;;;;5025452;28;20053;-71
2022/04/06 20:44:47;;;;;;;9.73;5.30;;;;;;;;;;5025865;28;20053;-72
2022/04/06 20:47:14;;;;;;;12.55;4.82;;;;;;;;;;5024377;28;20124;-67
2022/04/06 20:49:41;;;;;;;15.38;5.70;;;;;;;;;;5035583;28;20133;-67
2022/04/06 20:52:07;;;;;;;9.85;5.53;;;;;;;;;;5026077;28;20045;-67
2022/04/06 20:54:34;;;;;;;14.05;6.32;;;;;;;;;;5026075;28;20052;-67
2022/04/06 20:57:01;;;;;;;11.63;6.05;;;;;;;;;;5021418;28;20077;-68
2022/04/06 20:59:27;;;;;;;7.57;5.93;;;;;;;;;;5005707;28;20079;-68
2022/04/06 21:01:54;;;;;;;7.88;6.88;;;;;;;;;;5008079;28;20125;-68
2022/04/06 21:04:20;;;;;;;10.60;6.97;;;;;;;;;;5022202;28;20046;-68